Time;durP1;ratioP1;P1;durP2;ratioP2;P2;SDS_P1;SDS_P2;PMS_P1;PMS_P2;Temp;Humidity;BMP_temperature;BMP_pressure;BME280_temperature;BME280_humidity;BME280_pressure;Samples;Min_cycle;Max_cycle;Signal;HPM_P1;HPM_P2
2023/12/25 00:01:51;;;;;;;4.35;2.08;;;23.00;48.60;;;;;;10474166;28;20127;-47
2023/12/25 00:06:52;;;;;;;3.50;2.17;;;23.00;48.40;;;;;;10466495;28;20072;-48
2023/12/25 00:11:54;;;;;;;6.13;2.40;;;23.00;48.60;;;;;;10474628;28;20040;-48
2023/12/25 00:16:57;;;;;;;3.03;2.05;;;22.80;48.90;;;;;;10472470;28;20658;-47
2023/12/25 00:21:59;;;;;;;4.68;2.20;;;22.80;49.00;;;;;;10473659;28;20479;-47
2023/12/25 00:27:00;;;;;;;4.18;2.40;;;22.80;49.10;;;;;;10478017;28;20139;-48
2023/12/25 00:32:04;;;;;;;4.38;2.03;;;22.70;49.10;;;;;;10471635;28;20075;-47
2023/12/25 00:37:06;;;;;;;4.85;2.30;;;22.70;49.10;;;;;;10473392;28;20067;-46
2023/12/25 00:42:07;;;;;;;3.60;1.80;;;22.60;49.20;;;;;;10471159;28;20478;-48
2023/12/25 00:47:10;;;;;;;3.58;1.80;;;22.60;49.10;;;;;;10471620;28;20489;-47
2023/12/25 00:52:14;;;;;;;4.53;2.20;;;22.50;49.30;;;;;;10469593;28;20135;-48
2023/12/25 00:57:15;;;;;;;4.05;1.80;;;22.40;49.50;;;;;;10472933;28;20053;-46
2023/12/25 01:02:18;;;;;;;4.25;1.92;;;22.30;49.70;;;;;;10487225;28;20532;-47
2023/12/25 01:07:20;;;;;;;3.55;1.67;;;22.40;50.20;;;;;;10481410;28;20639;-49
2023/12/25 01:12:21;;;;;;;2.28;1.50;;;22.40;49.60;;;;;;10474767;28;20131;-46
2023/12/25 01:17:25;;;;;;;3.38;1.80;;;22.30;49.60;;;;;;10477801;28;20147;-48
2023/12/25 01:22:26;;;;;;;3.15;1.52;;;22.40;50.10;;;;;;10477869;28;20056;-50
2023/12/25 01:27:28;;;;;;;2.63;1.40;;;22.30;49.50;;;;;;10478287;28;20045;-47
2023/12/25 01:32:31;;;;;;;3.17;1.25;;;22.20;49.60;;;;;;10477219;28;20167;-47
2023/12/25 01:37:33;;;;;;;2.38;1.50;;;22.20;49.70;;;;;;10475783;28;20519;-47
2023/12/25 01:42:34;;;;;;;2.47;1.30;;;22.10;49.90;;;;;;10478933;28;20102;-47
2023/12/25 01:47:37;;;;;;;2.45;1.30;;;22.10;49.70;;;;;;10488837;28;20139;-49
2023/12/25 01:52:39;;;;;;;2.25;1.42;;;22.10;49.70;;;;;;10476647;28;20058;-46
2023/12/25 01:57:41;;;;;;;2.03;1.30;;;22.00;49.70;;;;;;10472559;28;20210;-49
2023/12/25 02:02:44;;;;;;;2.53;1.30;;;21.90;50.00;;;;;;10466441;28;20048;-46
2023/12/25 02:07:45;;;;;;;1.92;1.30;;;22.00;49.80;;;;;;10471435;28;20167;-46
2023/12/25 02:12:47;;;;;;;1.92;1.10;;;22.00;49.80;;;;;;10472014;28;20044;-47
2023/12/25 02:17:50;;;;;;;1.50;1.10;;;21.90;49.80;;;;;;10469038;28;20044;-48
2023/12/25 02:22:51;;;;;;;2.60;1.20;;;21.80;50.00;;;;;;10469345;28;20124;-46
2023/12/25 02:27:54;;;;;;;1.80;1.02;;;21.90;49.60;;;;;;10471336;28;20140;-46
2023/12/25 02:32:56;;;;;;;2.60;1.00;;;21.90;49.70;;;;;;10471349;28;20147;-48
2023/12/25 02:37:58;;;;;;;2.53;1.20;;;21.90;49.60;;;;;;10477011;28;20052;-47
2023/12/25 02:43:00;;;;;;;1.38;0.93;;;21.70;49.60;;;;;;10472987;28;20051;-47
2023/12/25 02:48:02;;;;;;;1.63;0.90;;;21.80;49.60;;;;;;10471395;28;20527;-48
2023/12/25 02:53:04;;;;;;;2.63;0.85;;;21.80;49.40;;;;;;10472026;28;20045;-46
2023/12/25 02:58:07;;;;;;;2.55;1.15;;;21.70;49.60;;;;;;10477645;28;20517;-48
2023/12/25 03:03:09;;;;;;;1.52;0.85;;;21.60;49.80;;;;;;10468327;28;20131;-47
2023/12/25 03:08:10;;;;;;;1.33;0.90;;;21.60;49.80;;;;;;10468995;28;20139;-47
2023/12/25 03:13:13;;;;;;;2.00;0.90;;;21.60;49.90;;;;;;10468402;28;20132;-47
2023/12/25 03:18:15;;;;;;;2.25;1.10;;;21.60;49.80;;;;;;10476646;28;20139;-48
2023/12/25 03:23:16;;;;;;;3.58;1.02;;;21.50;49.70;;;;;;10475899;28;20557;-46
2023/12/25 03:28:19;;;;;;;2.03;0.98;;;21.50;49.70;;;;;;10471644;28;20132;-49
2023/12/25 03:33:21;;;;;;;1.80;1.05;;;21.40;49.80;;;;;;10472751;28;20131;-46
2023/12/25 03:38:26;;;;;;;2.13;0.85;;;21.50;49.80;;;;;;10465556;28;20139;-46
2023/12/25 03:43:28;;;;;;;1.85;0.90;;;21.40;49.70;;;;;;10472081;28;20144;-48
2023/12/25 03:48:30;;;;;;;2.65;1.00;;;21.40;49.50;;;;;;10474015;28;20155;-47
2023/12/25 03:53:32;;;;;;;3.03;1.20;;;21.30;49.80;;;;;;10470374;28;20047;-49
2023/12/25 03:58:35;;;;;;;2.40;1.00;;;21.40;49.60;;;;;;10464418;28;20063;-48
2023/12/25 04:03:37;;;;;;;2.58;1.00;;;21.20;50.00;;;;;;10461285;28;21341;-45
2023/12/25 04:08:39;;;;;;;2.42;1.00;;;21.20;50.30;;;;;;10478058;28;20128;-45
2023/12/25 04:13:41;;;;;;;1.42;1.00;;;21.40;50.50;;;;;;10466276;28;20048;-48
2023/12/25 04:18:43;;;;;;;2.25;1.10;;;21.50;50.70;;;;;;10462377;28;20127;-44
2023/12/25 04:23:45;;;;;;;3.10;1.40;;;21.90;50.40;;;;;;10469080;28;20135;-46
2023/12/25 04:28:48;;;;;;;3.20;1.42;;;22.10;50.20;;;;;;10468636;28;20041;-44
2023/12/25 04:33:50;;;;;;;2.70;1.50;;;22.20;50.10;;;;;;10468739;28;20045;-46
2023/12/25 04:38:51;;;;;;;2.25;1.48;;;22.30;50.00;;;;;;10465735;28;20550;-46
2023/12/25 04:43:54;;;;;;;2.25;1.42;;;22.40;49.70;;;;;;10470089;28;20155;-44
2023/12/25 04:48:56;;;;;;;2.25;1.40;;;22.60;49.60;;;;;;10477499;28;20179;-47
2023/12/25 04:53:57;;;;;;;2.90;1.60;;;22.70;49.50;;;;;;10481536;28;20135;-46
2023/12/25 04:59:00;;;;;;;3.15;1.63;;;22.70;49.60;;;;;;10482155;28;20140;-46
2023/12/25 05:04:02;;;;;;;3.35;1.60;;;22.70;49.70;;;;;;10472121;28;20483;-45
2023/12/25 05:09:04;;;;;;;2.83;1.48;;;22.90;49.40;;;;;;10469536;28;20131;-45
2023/12/25 05:14:07;;;;;;;3.33;1.40;;;22.90;49.20;;;;;;10472132;28;20099;-45
2023/12/25 05:19:10;;;;;;;2.03;1.60;;;22.90;49.20;;;;;;10478352;28;20135;-48
2023/12/25 05:24:11;;;;;;;3.30;1.70;;;23.00;49.00;;;;;;10477242;28;20533;-46
2023/12/25 05:29:14;;;;;;;2.63;1.67;;;23.20;48.90;;;;;;10473820;28;20139;-49
2023/12/25 05:34:16;;;;;;;2.60;1.40;;;23.10;49.20;;;;;;10473333;28;20071;-45
2023/12/25 05:39:18;;;;;;;4.43;1.60;;;23.00;49.70;;;;;;10480565;28;20054;-47
2023/12/25 05:44:20;;;;;;;2.38;1.60;;;23.00;49.50;;;;;;10478486;28;20044;-45
2023/12/25 05:49:22;;;;;;;2.75;1.65;;;23.00;49.80;;;;;;10466594;28;20147;-45
2023/12/25 05:54:24;;;;;;;3.28;1.70;;;23.20;49.50;;;;;;10472580;28;20048;-45
2023/12/25 05:59:27;;;;;;;3.03;1.67;;;23.10;49.70;;;;;;10470450;28;20084;-46
2023/12/25 06:04:28;;;;;;;3.15;1.73;;;23.20;49.60;;;;;;10484820;28;20128;-46
2023/12/25 06:09:30;;;;;;;3.33;1.27;;;23.10;49.50;;;;;;10471664;28;20148;-45
2023/12/25 06:14:33;;;;;;;3.42;1.38;;;23.10;49.50;;;;;;10468261;28;20494;-46
2023/12/25 06:19:35;;;;;;;2.47;1.40;;;23.20;49.40;;;;;;10471781;28;20140;-48
2023/12/25 06:24:36;;;;;;;3.72;1.70;;;23.10;49.90;;;;;;10470601;28;20135;-46
2023/12/25 06:29:39;;;;;;;3.72;1.65;;;23.20;48.80;;;;;;10465519;28;20127;-48
2023/12/25 06:34:41;;;;;;;6.63;1.95;;;23.20;48.90;;;;;;10466802;28;20045;-46
2023/12/25 06:39:42;;;;;;;5.72;1.83;;;23.30;49.00;;;;;;10464801;28;20056;-44
2023/12/25 06:44:47;;;;;;;78.72;9.50;;;23.20;49.60;;;;;;10473764;28;20044;-46
2023/12/25 06:49:48;;;;;;;56.78;9.55;;;23.00;50.10;;;;;;10469633;28;20090;-47
2023/12/25 06:54:50;;;;;;;36.85;8.40;;;22.90;50.90;;;;;;10472565;28;20057;-46
2023/12/25 06:59:53;;;;;;;21.02;6.68;;;22.80;51.10;;;;;;10467718;28;20506;-49
2023/12/25 07:04:54;;;;;;;26.30;6.75;;;22.80;51.20;;;;;;10464783;28;20041;-49
2023/12/25 07:09:56;;;;;;;21.45;5.45;;;22.80;51.20;;;;;;10468072;28;20049;-46
2023/12/25 07:14:59;;;;;;;14.68;5.20;;;22.90;51.10;;;;;;10474323;28;20516;-45
2023/12/25 07:20:01;;;;;;;19.60;5.45;;;23.40;50.10;;;;;;10472421;28;20148;-46
2023/12/25 07:25:06;;;;;;;12.60;4.70;;;23.10;50.70;;;;;;10468368;28;20044;-47
2023/12/25 07:30:10;;;;;;;9.15;4.43;;;23.00;51.30;;;;;;10469788;28;20052;-47
2023/12/25 07:35:11;;;;;;;12.70;4.60;;;23.10;50.90;;;;;;10477476;28;20048;-48
2023/12/25 07:40:13;;;;;;;10.02;3.90;;;23.00;50.70;;;;;;10466983;28;20151;-45
2023/12/25 07:45:16;;;;;;;11.32;3.95;;;22.90;50.80;;;;;;10469871;28;20548;-45
2023/12/25 07:50:18;;;;;;;10.07;3.85;;;22.90;50.90;;;;;;10463444;28;20076;-48
2023/12/25 07:55:19;;;;;;;28.45;4.85;;;22.90;51.50;;;;;;10469593;28;20063;-46
2023/12/25 08:00:22;;;;;;;20.40;5.45;;;23.30;51.30;;;;;;10471245;28;20490;-46
2023/12/25 08:05:24;;;;;;;21.38;5.68;;;23.60;50.00;;;;;;10467365;28;20045;-46
2023/12/25 08:10:25;;;;;;;16.40;4.88;;;23.50;49.40;;;;;;10467838;28;20131;-50
2023/12/25 08:15:28;;;;;;;19.73;5.35;;;23.60;48.50;;;;;;10467317;28;20135;-46
2023/12/25 08:20:30;;;;;;;21.92;5.05;;;23.50;47.70;;;;;;10461005;28;20141;-46
2023/12/25 08:25:32;;;;;;;20.27;5.15;;;23.40;47.50;;;;;;10475870;28;20064;-48
2023/12/25 08:30:35;;;;;;;17.77;4.50;;;23.40;47.00;;;;;;10460510;28;20056;-50
2023/12/25 08:35:37;;;;;;;28.98;4.70;;;23.50;46.60;;;;;;10464072;28;20047;-47
2023/12/25 08:40:38;;;;;;;17.80;5.32;;;23.50;48.60;;;;;;10464198;28;20139;-50
2023/12/25 08:45:42;;;;;;;15.85;5.05;;;23.60;49.10;;;;;;10466576;28;20487;-50
2023/12/25 08:50:44;;;;;;;14.45;4.50;;;23.60;49.70;;;;;;10476048;28;20057;-50
2023/12/25 08:55:46;;;;;;;15.27;4.00;;;23.70;50.00;;;;;;10464161;28;20120;-46
2023/12/25 09:00:49;;;;;;;17.30;3.80;;;23.80;49.40;;;;;;10469202;28;20136;-49
2023/12/25 09:05:50;;;;;;;18.05;4.25;;;23.30;50.40;;;;;;10467712;28;20079;-47
2023/12/25 09:10:52;;;;;;;21.15;4.38;;;23.20;51.00;;;;;;10468013;28;20052;-50
2023/12/25 09:15:55;;;;;;;24.13;4.40;;;23.30;51.20;;;;;;10462406;28;20588;-48
2023/12/25 09:20:57;;;;;;;17.52;3.95;;;23.30;51.20;;;;;;10460168;28;20156;-47
2023/12/25 09:25:59;;;;;;;13.65;4.90;;;23.30;51.20;;;;;;10465458;28;20040;-46
2023/12/25 09:31:02;;;;;;;22.33;3.85;;;23.40;50.90;;;;;;10471697;28;20131;-48
2023/12/25 09:36:04;;;;;;;12.82;3.70;;;23.40;51.20;;;;;;10481516;28;20044;-46
2023/12/25 09:41:06;;;;;;;11.38;4.07;;;23.60;51.00;;;;;;10477093;28;20132;-47
2023/12/25 09:46:10;;;;;;;13.95;3.72;;;23.50;51.20;;;;;;10468068;28;20086;-46
2023/12/25 09:51:12;;;;;;;11.07;3.90;;;23.60;51.50;;;;;;10475257;28;20136;-48
2023/12/25 09:56:13;;;;;;;11.98;3.80;;;23.50;50.90;;;;;;10480230;28;20139;-49
2023/12/25 10:01:17;;;;;;;8.50;3.17;;;23.60;50.80;;;;;;10470057;28;20086;-46
2023/12/25 10:06:20;;;;;;;8.40;3.45;;;23.60;50.70;;;;;;10472743;28;20453;-46
2023/12/25 10:11:22;;;;;;;10.73;3.13;;;23.70;50.40;;;;;;10469892;28;20483;-48
2023/12/25 10:16:25;;;;;;;9.98;3.15;;;23.70;50.30;;;;;;10478947;28;20152;-49
2023/12/25 10:21:27;;;;;;;8.13;3.08;;;23.60;50.40;;;;;;10481802;28;20065;-46
2023/12/25 10:26:28;;;;;;;9.38;3.40;;;23.50;50.60;;;;;;10472665;28;20136;-49
2023/12/25 10:31:31;;;;;;;9.15;3.03;;;23.40;50.90;;;;;;10471123;28;20052;-53
2023/12/25 10:36:33;;;;;;;7.85;2.78;;;23.30;50.60;;;;;;10464308;28;20475;-46
2023/12/25 10:41:35;;;;;;;9.00;3.13;;;23.30;50.50;;;;;;10473636;28;20708;-45
2023/12/25 10:46:38;;;;;;;5.95;2.75;;;23.40;50.30;;;;;;10478715;28;20051;-46
2023/12/25 10:51:41;;;;;;;7.85;2.90;;;23.30;50.00;;;;;;10473387;28;20456;-46
2023/12/25 10:56:43;;;;;;;7.55;2.72;;;23.20;50.20;;;;;;10470764;28;20044;-48
2023/12/25 11:01:48;;;;;;;8.25;2.60;;;23.30;50.10;;;;;;10467832;28;20057;-47
2023/12/25 11:06:50;;;;;;;6.38;2.83;;;23.30;50.00;;;;;;10471866;28;20135;-47
2023/12/25 11:11:51;;;;;;;9.10;2.58;;;23.30;49.80;;;;;;10469138;28;20127;-45
2023/12/25 11:16:54;;;;;;;6.53;2.38;;;23.10;50.20;;;;;;10468861;28;20127;-46
2023/12/25 11:21:56;;;;;;;6.53;2.50;;;23.10;49.80;;;;;;10472925;28;20072;-47
2023/12/25 11:27:02;;;;;;;6.43;2.47;;;23.00;50.10;;;;;;10473724;28;20140;-45
2023/12/25 11:32:09;;;;;;;6.85;2.60;;;23.00;50.00;;;;;;10481607;28;20422;-49
2023/12/25 11:37:18;;;;;;;5.60;2.25;;;22.90;50.30;;;;;;10469931;28;20060;-47
2023/12/25 11:42:20;;;;;;;4.32;1.92;;;23.10;49.70;;;;;;10463678;28;20049;-48
2023/12/25 11:47:28;;;;;;;4.38;1.88;;;22.90;49.80;;;;;;10467457;28;20056;-46
2023/12/25 11:52:53;;;;;;;4.68;2.35;;;22.90;49.90;;;;;;10465823;28;20434;-47
2023/12/25 11:57:54;;;;;;;4.15;2.30;;;23.00;49.80;;;;;;10473802;28;20048;-45
2023/12/25 12:02:57;;;;;;;4.78;1.90;;;23.20;49.20;;;;;;10476368;28;20494;-45
2023/12/25 12:07:59;;;;;;;4.40;2.22;;;23.20;48.80;;;;;;10468149;28;20147;-47
2023/12/25 12:13:00;;;;;;;3.92;1.90;;;23.20;48.80;;;;;;10473409;28;20076;-45
2023/12/25 12:18:04;;;;;;;4.85;2.40;;;23.20;48.70;;;;;;10476652;28;20468;-45
2023/12/25 12:23:12;;;;;;;3.90;1.90;;;23.00;48.90;;;;;;10470719;28;20594;-46
2023/12/25 12:28:15;;;;;;;4.57;2.10;;;22.90;49.10;;;;;;10465609;28;20079;-50
2023/12/25 12:33:18;;;;;;;4.70;1.95;;;23.00;48.90;;;;;;10466890;28;20147;-46
2023/12/25 12:38:21;;;;;;;4.43;1.73;;;22.90;48.80;;;;;;10476591;28;20127;-45
2023/12/25 12:43:22;;;;;;;5.28;2.33;;;22.90;49.10;;;;;;10475108;28;20127;-47
2023/12/25 12:48:25;;;;;;;3.80;1.90;;;23.00;49.00;;;;;;10469043;28;20147;-48
2023/12/25 12:53:27;;;;;;;4.55;2.00;;;23.00;48.60;;;;;;10465687;28;20394;-46
2023/12/25 12:58:28;;;;;;;5.13;2.10;;;22.90;48.70;;;;;;10469675;28;20128;-46
2023/12/25 13:03:31;;;;;;;3.78;1.88;;;23.00;48.60;;;;;;10481239;28;20128;-48
2023/12/25 13:08:33;;;;;;;3.95;1.80;;;23.00;48.60;;;;;;10477617;28;20622;-45
2023/12/25 13:13:41;;;;;;;4.18;1.67;;;23.00;48.50;;;;;;10476857;28;20132;-48
2023/12/25 13:18:44;;;;;;;3.67;1.55;;;22.90;48.60;;;;;;10476931;28;20487;-48
2023/12/25 13:23:46;;;;;;;2.55;1.48;;;22.90;48.50;;;;;;10476275;28;20697;-45
2023/12/25 13:28:48;;;;;;;4.55;1.83;;;22.80;48.70;;;;;;10484746;28;20155;-45
2023/12/25 13:33:51;;;;;;;3.10;1.73;;;22.80;48.60;;;;;;10480177;28;20132;-48
2023/12/25 13:38:52;;;;;;;3.10;1.58;;;22.70;49.20;;;;;;10471234;28;20128;-45
2023/12/25 13:43:55;;;;;;;3.75;1.50;;;22.70;49.30;;;;;;10468017;28;20402;-47
2023/12/25 13:48:58;;;;;;;4.25;1.80;;;22.80;49.10;;;;;;10476275;28;20044;-48
2023/12/25 13:53:59;;;;;;;3.40;1.63;;;22.80;49.00;;;;;;10486514;28;20513;-47
2023/12/25 13:59:01;;;;;;;3.15;1.52;;;22.70;49.00;;;;;;10473885;28;20472;-49
2023/12/25 14:04:04;;;;;;;4.88;1.60;;;22.70;49.20;;;;;;10470753;28;20143;-46
2023/12/25 14:09:06;;;;;;;3.50;1.70;;;22.60;49.00;;;;;;10474755;28;20117;-45
2023/12/25 14:14:07;;;;;;;3.95;1.60;;;22.60;49.10;;;;;;10476703;28;20144;-51
2023/12/25 14:19:10;;;;;;;2.08;1.27;;;22.40;49.70;;;;;;10473475;28;20135;-50
2023/12/25 14:24:12;;;;;;;3.15;1.40;;;22.40;50.10;;;;;;10469284;28;20135;-47
2023/12/25 14:29:14;;;;;;;4.60;1.67;;;22.50;49.80;;;;;;10471721;28;20052;-49
2023/12/25 14:34:17;;;;;;;2.63;1.40;;;22.60;49.60;;;;;;10471936;28;20094;-49
2023/12/25 14:39:18;;;;;;;3.35;1.75;;;22.70;49.50;;;;;;10480635;28;20143;-47
2023/12/25 14:44:20;;;;;;;2.95;1.30;;;22.70;49.30;;;;;;10478320;28;20131;-46
2023/12/25 14:49:23;;;;;;;2.10;1.40;;;22.70;49.50;;;;;;10477302;28;20136;-45
2023/12/25 14:54:25;;;;;;;5.93;1.70;;;22.80;49.50;;;;;;10470085;28;20550;-49
2023/12/25 14:59:27;;;;;;;3.45;1.38;;;22.70;49.30;;;;;;10477629;28;20060;-48
2023/12/25 15:04:30;;;;;;;2.53;1.30;;;22.90;49.00;;;;;;10472360;28;20082;-45
2023/12/25 15:09:32;;;;;;;4.72;1.55;;;22.80;49.40;;;;;;10471015;28;20080;-44
2023/12/25 15:14:33;;;;;;;2.78;1.30;;;22.70;49.70;;;;;;10471800;28;20079;-47
2023/12/25 15:19:37;;;;;;;2.70;1.50;;;22.60;50.00;;;;;;10471052;28;20490;-45
2023/12/25 15:24:39;;;;;;;2.50;1.40;;;22.70;49.70;;;;;;10480741;28;20156;-46
2023/12/25 15:29:42;;;;;;;3.17;1.48;;;22.70;49.90;;;;;;10476200;28;20136;-48
2023/12/25 15:34:45;;;;;;;3.10;1.30;;;22.90;49.50;;;;;;10470845;28;20045;-45
2023/12/25 15:39:47;;;;;;;2.83;1.30;;;22.90;49.50;;;;;;10465985;28;20136;-51
2023/12/25 15:44:48;;;;;;;2.65;1.48;;;22.90;49.60;;;;;;10473899;28;20415;-49
2023/12/25 15:49:52;;;;;;;2.80;1.27;;;22.90;49.50;;;;;;10478671;28;20140;-45
2023/12/25 15:54:53;;;;;;;2.17;1.30;;;23.00;49.50;;;;;;10475637;28;20048;-47
2023/12/25 15:59:55;;;;;;;2.60;1.25;;;23.00;49.50;;;;;;10471945;28;20045;-44
2023/12/25 16:04:58;;;;;;;2.60;1.40;;;23.10;49.30;;;;;;10474982;28;20123;-45
2023/12/25 16:10:00;;;;;;;2.83;1.30;;;23.00;49.50;;;;;;10466973;28;20421;-48
2023/12/25 16:15:05;;;;;;;2.25;1.15;;;23.00;49.60;;;;;;10472037;28;20510;-47
2023/12/25 16:20:09;;;;;;;2.95;1.30;;;23.10;49.30;;;;;;10461797;28;20080;-45
2023/12/25 16:25:14;;;;;;;3.88;1.50;;;23.10;49.30;;;;;;10469692;28;20123;-45
2023/12/25 16:30:16;;;;;;;3.40;1.35;;;23.10;49.40;;;;;;10469036;28;20131;-46
2023/12/25 16:35:19;;;;;;;2.35;1.17;;;23.20;49.30;;;;;;10488816;28;20139;-45
2023/12/25 16:40:22;;;;;;;3.00;1.20;;;23.10;49.40;;;;;;10484021;28;20049;-44
2023/12/25 16:45:24;;;;;;;2.20;1.17;;;23.20;49.10;;;;;;10484982;28;20049;-45
2023/12/25 16:50:27;;;;;;;2.47;1.40;;;23.20;49.30;;;;;;10483551;28;20139;-48
2023/12/25 16:55:28;;;;;;;2.45;1.15;;;23.20;49.30;;;;;;10480546;28;20127;-49
2023/12/25 17:00:30;;;;;;;2.22;1.05;;;23.20;49.20;;;;;;10487694;28;20135;-46
2023/12/25 17:05:33;;;;;;;2.17;1.13;;;23.30;49.10;;;;;;10481609;28;20127;-45
2023/12/25 17:10:35;;;;;;;2.20;1.10;;;23.30;49.30;;;;;;10476271;28;20083;-51
2023/12/25 17:15:36;;;;;;;2.60;1.17;;;23.30;49.20;;;;;;10485533;28;20063;-49
2023/12/25 17:20:39;;;;;;;1.70;1.10;;;23.20;49.20;;;;;;10488341;28;20167;-45
2023/12/25 17:25:43;;;;;;;2.33;1.10;;;23.20;49.20;;;;;;10476022;28;20162;-48
2023/12/25 17:30:46;;;;;;;2.25;1.10;;;23.20;49.30;;;;;;10474777;28;20079;-45
2023/12/25 17:35:49;;;;;;;1.95;1.00;;;23.30;49.10;;;;;;10476556;28;20040;-45
2023/12/25 17:40:51;;;;;;;2.28;1.20;;;23.40;48.90;;;;;;10486372;28;20132;-47
2023/12/25 17:45:53;;;;;;;1.95;1.13;;;23.50;48.80;;;;;;10482188;28;20159;-45
2023/12/25 17:50:55;;;;;;;1.70;1.00;;;23.30;49.00;;;;;;10474800;28;20995;-48
2023/12/25 17:55:57;;;;;;;1.52;1.00;;;23.40;49.10;;;;;;10470355;28;20140;-45
2023/12/25 18:00:59;;;;;;;2.53;1.10;;;23.40;49.00;;;;;;10471013;28;20130;-48
2023/12/25 18:06:02;;;;;;;1.88;1.10;;;23.40;49.00;;;;;;10478297;28;20132;-46
2023/12/25 18:11:04;;;;;;;1.48;1.00;;;23.50;48.80;;;;;;10472963;28;20052;-45
2023/12/25 18:16:07;;;;;;;1.83;1.25;;;23.50;48.90;;;;;;10473480;28;20403;-47
2023/12/25 18:21:11;;;;;;;1.90;1.10;;;23.50;48.70;;;;;;10474309;28;20151;-45
2023/12/25 18:26:22;;;;;;;1.00;0.77;;;23.50;48.80;;;;;;10471179;28;20098;-48
2023/12/25 18:31:24;;;;;;;1.77;1.00;;;23.50;48.90;;;;;;10472878;28;20060;-48
2023/12/25 18:36:27;;;;;;;2.20;0.90;;;23.50;48.70;;;;;;10468454;28;20510;-45
2023/12/25 18:41:28;;;;;;;2.17;0.90;;;23.50;48.90;;;;;;10469154;28;20149;-49
2023/12/25 18:46:30;;;;;;;1.60;1.00;;;23.50;48.90;;;;;;10469848;28;20139;-48
2023/12/25 18:51:33;;;;;;;1.50;0.88;;;23.50;48.80;;;;;;10475254;28;20131;-45
2023/12/25 18:56:35;;;;;;;1.48;1.10;;;23.60;48.60;;;;;;10476710;28;20048;-47
2023/12/25 19:01:36;;;;;;;1.25;0.75;;;23.50;48.60;;;;;;10472823;28;20055;-48
2023/12/25 19:06:39;;;;;;;0.90;0.60;;;23.50;48.80;;;;;;10465762;28;20139;-45
2023/12/25 19:11:41;;;;;;;1.42;0.80;;;23.50;48.80;;;;;;10468073;28;20080;-45
2023/12/25 19:16:43;;;;;;;0.85;0.70;;;23.50;48.70;;;;;;10475488;28;20131;-45
2023/12/25 19:21:46;;;;;;;1.40;0.93;;;23.40;48.80;;;;;;10478025;28;20048;-45
2023/12/25 19:26:48;;;;;;;0.90;0.70;;;23.40;48.70;;;;;;10466710;28;20140;-45
2023/12/25 19:31:50;;;;;;;1.33;0.90;;;23.50;48.30;;;;;;10465576;28;20143;-45
2023/12/25 19:36:53;;;;;;;1.45;0.90;;;23.50;48.30;;;;;;10472021;28;20139;-45
2023/12/25 19:41:55;;;;;;;1.30;0.85;;;23.50;48.00;;;;;;10470114;28;20048;-46
2023/12/25 19:46:56;;;;;;;0.98;0.77;;;23.60;48.00;;;;;;10472746;28;20144;-45
2023/12/25 19:52:00;;;;;;;1.10;0.90;;;23.60;47.70;;;;;;10467588;28;20075;-45
2023/12/25 19:57:02;;;;;;;1.50;0.80;;;23.60;47.70;;;;;;10467358;28;20051;-47
2023/12/25 20:02:04;;;;;;;1.08;0.82;;;23.70;47.50;;;;;;10477507;28;20084;-45
2023/12/25 20:07:07;;;;;;;1.13;0.70;;;23.60;47.50;;;;;;10466348;28;20128;-46
2023/12/25 20:12:08;;;;;;;0.88;0.80;;;23.60;47.50;;;;;;10467997;28;20399;-47
2023/12/25 20:17:10;;;;;;;1.60;0.90;;;23.50;47.70;;;;;;10465568;28;20106;-45
2023/12/25 20:22:14;;;;;;;0.80;0.70;;;23.30;48.10;;;;;;10464437;28;20466;-46
2023/12/25 20:27:15;;;;;;;1.38;0.80;;;23.20;48.10;;;;;;10473384;28;20048;-47
2023/12/25 20:32:17;;;;;;;1.27;0.73;;;23.20;48.10;;;;;;10471543;28;20144;-49
2023/12/25 20:37:20;;;;;;;0.93;0.60;;;23.20;48.10;;;;;;10467994;28;20144;-49
2023/12/25 20:42:22;;;;;;;0.85;0.63;;;23.20;48.10;;;;;;10467120;28;20076;-47
2023/12/25 20:47:25;;;;;;;1.00;0.63;;;23.10;48.10;;;;;;10464437;28;20143;-45
2023/12/25 20:52:28;;;;;;;1.50;0.80;;;23.00;48.30;;;;;;10473273;28;20744;-45
2023/12/25 20:57:30;;;;;;;1.05;0.70;;;22.80;48.80;;;;;;10467711;28;20150;-45
2023/12/25 21:02:32;;;;;;;0.88;0.63;;;22.70;49.00;;;;;;10470382;28;20048;-50
2023/12/25 21:07:35;;;;;;;1.05;0.73;;;22.60;49.00;;;;;;10464915;28;20419;-45
2023/12/25 21:12:36;;;;;;;1.02;0.80;;;22.50;49.00;;;;;;10470507;28;20131;-45
2023/12/25 21:17:38;;;;;;;1.63;0.80;;;22.50;49.00;;;;;;10479460;28;20041;-46
2023/12/25 21:22:41;;;;;;;1.10;0.70;;;22.40;49.10;;;;;;10471283;28;20480;-45
2023/12/25 21:27:43;;;;;;;1.33;0.70;;;22.40;49.10;;;;;;10468152;28;20079;-46
2023/12/25 21:32:44;;;;;;;1.33;0.60;;;22.10;49.50;;;;;;10468720;28;20131;-49
2023/12/25 21:37:47;;;;;;;1.58;0.80;;;22.00;50.00;;;;;;10479568;28;20043;-45
2023/12/25 21:42:49;;;;;;;1.00;0.75;;;21.90;50.20;;;;;;10480707;28;20538;-49
2023/12/25 21:47:51;;;;;;;1.27;0.80;;;21.70;50.30;;;;;;10474897;28;20517;-50
2023/12/25 21:52:54;;;;;;;0.95;0.80;;;21.80;50.40;;;;;;10472894;28;20127;-44
2023/12/25 21:57:55;;;;;;;0.65;0.60;;;21.60;50.60;;;;;;10478761;28;20157;-48
2023/12/25 22:02:57;;;;;;;1.30;0.80;;;21.60;50.60;;;;;;10469519;28;20490;-45
2023/12/25 22:08:00;;;;;;;1.00;0.73;;;21.60;50.70;;;;;;10473866;28;20128;-45
2023/12/25 22:13:02;;;;;;;1.00;0.68;;;21.60;50.60;;;;;;10471961;28;20431;-46
2023/12/25 22:18:04;;;;;;;1.25;0.70;;;21.70;50.30;;;;;;10479309;28;20119;-49
2023/12/25 22:23:07;;;;;;;0.90;0.70;;;21.70;50.10;;;;;;10478592;28;20127;-45
2023/12/25 22:28:09;;;;;;;0.70;0.60;;;21.60;50.30;;;;;;10478532;28;20574;-47
2023/12/25 22:33:10;;;;;;;0.90;0.70;;;21.60;50.10;;;;;;10469770;28;20139;-45
2023/12/25 22:38:14;;;;;;;1.10;0.80;;;21.70;50.10;;;;;;10468512;28;20135;-45
2023/12/25 22:43:16;;;;;;;0.98;0.55;;;21.70;50.00;;;;;;10470002;28;20072;-45
2023/12/25 22:48:19;;;;;;;1.05;0.70;;;21.60;50.20;;;;;;10476651;28;20123;-45
2023/12/25 22:53:22;;;;;;;1.02;0.82;;;21.70;49.80;;;;;;10475139;28;20044;-46
2023/12/25 22:58:23;;;;;;;0.70;0.50;;;21.70;49.80;;;;;;10475020;28;20689;-44
2023/12/25 23:03:25;;;;;;;0.95;0.73;;;21.70;49.80;;;;;;10473843;28;20056;-44
2023/12/25 23:08:28;;;;;;;0.93;0.60;;;21.60;49.80;;;;;;10471745;28;20044;-45
2023/12/25 23:13:30;;;;;;;1.20;0.70;;;21.60;50.00;;;;;;10478463;28;20482;-44
2023/12/25 23:18:32;;;;;;;1.00;0.70;;;21.60;49.90;;;;;;10469644;28;20041;-45
2023/12/25 23:23:35;;;;;;;1.25;0.70;;;21.50;50.10;;;;;;10469126;28;20048;-46
2023/12/25 23:28:37;;;;;;;0.88;0.70;;;21.50;50.10;;;;;;10466822;28;20037;-45
2023/12/25 23:33:38;;;;;;;0.60;0.50;;;21.30;50.30;;;;;;10475978;28;20052;-44
2023/12/25 23:38:41;;;;;;;0.90;0.70;;;21.40;50.30;;;;;;10480201;28;20089;-47
2023/12/25 23:43:44;;;;;;;1.10;0.68;;;21.40;50.10;;;;;;10466227;28;20494;-44
2023/12/25 23:48:46;;;;;;;0.80;0.60;;;21.40;50.10;;;;;;10470394;28;20085;-45
2023/12/25 23:53:49;;;;;;;1.30;0.70;;;21.30;50.60;;;;;;10470738;28;20124;-45
2023/12/25 23:58:50;;;;;;;0.68;0.43;;;21.30;50.10;;;;;;10468759;28;20156;-45
